Time;durP1;ratioP1;P1;durP2;ratioP2;P2;SDS_P1;SDS_P2;PMS_P1;PMS_P2;Temp;Humidity;BMP_temperature;BMP_pressure;BME280_temperature;BME280_humidity;BME280_pressure;Samples;Min_cycle;Max_cycle;Signal;HPM_P1;HPM_P2
2022/05/03 00:01:02;;;;;;;6.78;5.82;;;11.50;99.90;;;;;;5098495;28;20024;-70
2022/05/03 00:03:31;;;;;;;;;;;11.40;99.90;;;;;;5098553;28;20303;-70
2022/05/03 00:06:20;;;;;;;9.75;5.65;;;11.30;99.90;;;;;;5097912;28;20011;-70
2022/05/03 00:08:53;;;;;;;8.88;6.57;;;11.20;99.90;;;;;;5098503;28;20020;-70
2022/05/03 00:11:38;;;;;;;10.15;5.93;;;11.20;99.90;;;;;;5096959;28;20413;-70
2022/05/03 00:14:30;;;;;;;7.32;6.40;;;11.20;99.90;;;;;;5097052;28;20032;-70
2022/05/03 00:16:58;;;;;;;7.25;6.10;;;11.20;99.90;;;;;;5097673;28;20036;-70
2022/05/03 00:19:24;;;;;;;7.38;6.07;;;11.10;99.90;;;;;;5097677;28;20036;-70
2022/05/03 00:21:51;;;;;;;6.90;6.13;;;11.10;99.90;;;;;;5097896;28;20023;-70
2022/05/03 00:24:18;;;;;;;8.45;5.82;;;11.10;99.90;;;;;;5097637;28;20031;-70
2022/05/03 00:26:45;;;;;;;7.85;5.97;;;11.10;99.90;;;;;;5096778;28;20307;-70
2022/05/03 00:29:12;;;;;;;6.10;5.55;;;11.10;99.90;;;;;;5096820;28;20036;-70
2022/05/03 00:31:38;;;;;;;7.40;5.93;;;11.00;99.90;;;;;;5097132;28;20032;-69
2022/05/03 00:34:05;;;;;;;7.93;5.63;;;11.00;99.90;;;;;;5096653;28;20043;-70
2022/05/03 00:36:31;;;;;;;6.53;5.75;;;11.00;99.90;;;;;;5097337;28;20334;-70
2022/05/03 00:38:57;;;;;;;6.60;5.82;;;10.90;99.90;;;;;;5097446;28;20036;-69
2022/05/03 00:41:45;;;;;;;7.55;5.95;;;10.90;99.90;;;;;;5097750;28;20032;-70
2022/05/03 00:45:00;;;;;;;6.60;5.68;;;10.90;99.90;;;;;;5097289;28;20061;-70
2022/05/03 00:47:38;;;;;;;7.10;6.10;;;10.90;99.90;;;;;;5097488;28;20391;-70
2022/05/03 00:50:08;;;;;;;6.53;5.63;;;10.80;99.90;;;;;;5097332;28;20112;-69
2022/05/03 00:52:45;;;;;;;7.32;5.97;;;10.90;99.90;;;;;;5097119;28;20059;-69
2022/05/03 00:55:37;;;;;;;6.07;5.47;;;10.90;99.90;;;;;;5097458;28;20051;-70
2022/05/03 00:58:12;;;;;;;6.13;5.57;;;10.90;99.90;;;;;;5061635;28;20051;-70
2022/05/03 01:00:54;;;;;;;6.90;5.68;;;10.80;99.90;;;;;;5097240;28;20086;-70
2022/05/03 01:03:39;;;;;;;7.75;5.78;;;10.80;99.90;;;;;;5097118;28;20028;-70
2022/05/03 01:06:21;;;;;;;6.45;5.70;;;10.70;99.90;;;;;;5097309;28;20032;-70
2022/05/03 01:08:47;;;;;;;10.27;6.20;;;10.70;99.90;;;;;;5096641;28;20090;-70
2022/05/03 01:11:39;;;;;;;8.55;6.03;;;10.60;99.90;;;;;;5097048;28;20024;-69
2022/05/03 01:14:30;;;;;;;6.18;5.57;;;10.60;99.90;;;;;;5083031;28;20040;-68
2022/05/03 01:17:21;;;;;;;7.28;5.80;;;10.50;99.90;;;;;;5097131;28;20039;-70
2022/05/03 01:19:53;;;;;;;7.10;5.78;;;10.50;99.90;;;;;;5097696;28;20038;-70
2022/05/03 01:22:56;;;;;;;7.15;5.93;;;10.50;99.90;;;;;;5096947;28;20024;-69
2022/05/03 01:25:50;;;;;;;7.30;6.18;;;10.50;99.90;;;;;;5096989;28;20047;-69
2022/05/03 01:28:56;;;;;;;6.22;5.40;;;10.50;99.90;;;;;;5097291;28;20043;-69
2022/05/03 01:31:23;;;;;;;8.20;6.15;;;10.40;99.90;;;;;;5096285;28;20028;-70
2022/05/03 01:33:50;;;;;;;6.47;5.88;;;10.40;99.90;;;;;;5096835;28;20039;-69
2022/05/03 01:36:31;;;;;;;9.48;6.22;;;10.40;99.90;;;;;;5096857;28;20362;-69
2022/05/03 01:39:18;;;;;;;8.35;6.00;;;10.50;99.90;;;;;;5097252;28;20330;-70
2022/05/03 01:41:54;;;;;;;8.60;6.32;;;10.40;99.90;;;;;;5096795;28;20035;-69
2022/05/03 01:44:35;;;;;;;6.63;5.60;;;10.50;99.90;;;;;;5100953;28;20377;-70
2022/05/03 01:47:43;;;;;;;8.10;6.60;;;10.40;99.90;;;;;;5101066;28;20039;-70
2022/05/03 01:50:35;;;;;;;8.10;5.93;;;10.40;99.90;;;;;;5100586;28;20044;-69
2022/05/03 01:53:19;;;;;;;8.10;6.55;;;10.30;99.90;;;;;;5100547;28;20036;-70
2022/05/03 01:56:13;;;;;;;6.38;5.70;;;10.20;99.90;;;;;;5100596;28;20027;-69
2022/05/03 01:59:13;;;;;;;7.45;6.35;;;10.20;99.90;;;;;;5099958;28;20070;-70
2022/05/03 02:01:39;;;;;;;8.60;6.65;;;10.10;99.90;;;;;;5099743;28;20024;-70
2022/05/03 02:04:27;;;;;;;8.10;6.55;;;10.10;99.90;;;;;;5100316;28;20054;-70
2022/05/03 02:07:11;;;;;;;7.25;6.47;;;10.10;99.90;;;;;;5100440;28;20040;-70
2022/05/03 02:10:03;;;;;;;9.25;6.88;;;10.10;99.90;;;;;;5100437;28;20032;-69
2022/05/03 02:12:29;;;;;;;9.63;6.93;;;10.10;99.90;;;;;;5100351;28;20024;-69
2022/05/03 02:15:05;;;;;;;8.68;6.57;;;10.00;99.90;;;;;;5100123;28;20040;-70
2022/05/03 02:17:44;;;;;;;6.90;6.20;;;10.00;99.90;;;;;;5100031;28;20114;-70
2022/05/03 02:20:27;;;;;;;7.85;6.97;;;10.00;99.90;;;;;;5100810;28;20286;-70
2022/05/03 02:23:20;;;;;;;9.10;7.30;;;9.90;99.90;;;;;;5100192;28;20292;-70
2022/05/03 02:26:05;;;;;;;9.45;7.50;;;9.90;99.90;;;;;;5100086;28;20035;-70
2022/05/03 02:28:59;;;;;;;8.82;7.22;;;9.90;99.90;;;;;;5099841;28;20032;-70
2022/05/03 02:31:37;;;;;;;7.53;6.68;;;9.90;99.90;;;;;;5100122;28;20131;-71
2022/05/03 02:34:15;;;;;;;9.45;8.02;;;9.80;99.90;;;;;;5099787;28;20020;-70
2022/05/03 02:37:00;;;;;;;7.82;7.03;;;9.90;99.90;;;;;;5099586;28;20085;-70
2022/05/03 02:39:31;;;;;;;9.38;7.20;;;9.80;99.90;;;;;;5099605;28;20089;-69
2022/05/03 02:42:00;;;;;;;8.55;7.43;;;9.80;99.90;;;;;;5098874;28;20335;-69
2022/05/03 02:44:30;;;;;;;9.38;7.63;;;9.80;99.90;;;;;;5100126;28;20073;-69
2022/05/03 02:47:03;;;;;;;8.35;7.28;;;9.70;99.90;;;;;;5098858;28;20122;-69
2022/05/03 02:49:47;;;;;;;10.45;8.07;;;9.70;99.90;;;;;;5099257;28;20047;-69
2022/05/03 02:52:35;;;;;;;11.50;7.95;;;9.70;99.90;;;;;;5099247;28;20024;-69
2022/05/03 02:55:13;;;;;;;11.00;7.90;;;9.70;99.90;;;;;;5098766;28;20277;-69
2022/05/03 02:58:05;;;;;;;9.68;7.93;;;9.70;99.90;;;;;;5099179;28;20020;-69
2022/05/03 03:03:48;;;;;;;9.48;7.40;;;9.60;99.90;;;;;;5099104;28;20291;-69
2022/05/03 03:06:22;;;;;;;10.25;8.40;;;9.60;99.90;;;;;;5099157;28;20051;-68
2022/05/03 03:08:54;;;;;;;12.13;8.13;;;9.60;99.90;;;;;;5098991;28;20092;-69
2022/05/03 03:11:37;;;;;;;8.77;7.38;;;9.50;99.90;;;;;;5099000;28;20024;-69
2022/05/03 03:14:08;;;;;;;;;;;9.50;99.90;;;;;;5099393;28;20024;-69
2022/05/03 03:16:40;;;;;;;9.30;7.55;;;9.50;99.90;;;;;;5099068;28;20306;-69
2022/05/03 03:19:24;;;;;;;11.18;7.93;;;9.40;99.90;;;;;;5098907;28;20024;-69
2022/05/03 03:21:54;;;;;;;9.43;7.63;;;9.50;99.90;;;;;;5098652;28;20032;-69
2022/05/03 03:24:22;;;;;;;9.40;8.15;;;9.50;99.90;;;;;;5099346;28;20081;-68
2022/05/03 03:26:51;;;;;;;11.15;7.60;;;9.40;99.90;;;;;;5098593;28;20024;-69
2022/05/03 03:29:18;;;;;;;10.02;7.68;;;9.40;99.90;;;;;;5098649;28;20040;-69
2022/05/03 03:31:46;;;;;;;11.82;8.68;;;9.40;99.90;;;;;;5098559;28;20032;-68
2022/05/03 03:34:13;;;;;;;9.45;7.85;;;9.40;99.90;;;;;;5098628;28;20070;-68
2022/05/03 03:36:41;;;;;;;10.15;8.48;;;9.40;99.90;;;;;;5098417;28;20043;-68
2022/05/03 03:39:07;;;;;;;10.60;8.82;;;9.40;99.90;;;;;;5097636;28;20066;-68
2022/05/03 03:41:33;;;;;;;10.68;8.82;;;9.50;99.90;;;;;;5098638;28;20118;-68
2022/05/03 03:43:59;;;;;;;13.00;9.32;;;9.40;99.90;;;;;;5098192;28;20028;-68
2022/05/03 03:46:25;;;;;;;16.58;9.85;;;9.40;99.90;;;;;;5097485;28;20028;-69
2022/05/03 03:48:51;;;;;;;14.40;10.40;;;9.40;99.90;;;;;;5098109;28;20048;-68
2022/05/03 03:51:18;;;;;;;14.73;10.18;;;9.40;99.90;;;;;;5098067;28;20529;-69
2022/05/03 03:53:45;;;;;;;12.27;10.15;;;9.40;99.90;;;;;;5098163;28;20063;-69
2022/05/03 03:56:11;;;;;;;14.38;10.30;;;9.40;99.90;;;;;;5098290;28;20036;-70
2022/05/03 03:58:37;;;;;;;12.30;9.60;;;9.40;99.90;;;;;;5097205;28;20052;-69
2022/05/03 04:01:03;;;;;;;14.30;10.43;;;9.40;99.90;;;;;;5097272;28;20081;-69
2022/05/03 04:03:31;;;;;;;12.40;9.70;;;9.40;99.90;;;;;;5097978;28;20028;-69
2022/05/03 04:05:57;;;;;;;13.20;9.80;;;9.40;99.90;;;;;;5096898;28;20032;-69
2022/05/03 04:08:25;;;;;;;13.82;9.85;;;9.40;99.90;;;;;;5097144;28;20093;-69
2022/05/03 04:10:50;;;;;;;13.25;9.98;;;9.30;99.90;;;;;;5098269;28;20032;-68
2022/05/03 04:13:16;;;;;;;12.00;10.07;;;9.30;99.90;;;;;;5097140;28;20043;-68
2022/05/03 04:15:42;;;;;;;15.70;9.57;;;9.30;99.90;;;;;;5097148;28;20032;-68
2022/05/03 04:18:08;;;;;;;13.63;10.23;;;9.40;99.90;;;;;;5097125;28;20118;-68
2022/05/03 04:20:35;;;;;;;12.50;9.52;;;9.30;99.90;;;;;;5097475;28;20086;-68
2022/05/03 04:23:01;;;;;;;12.02;9.20;;;9.30;99.90;;;;;;5097398;28;20024;-68
2022/05/03 04:25:27;;;;;;;12.02;9.45;;;9.30;99.90;;;;;;5097323;28;20418;-68
2022/05/03 04:27:53;;;;;;;12.35;9.10;;;9.30;99.90;;;;;;5097488;28;20066;-68
2022/05/03 04:30:19;;;;;;;17.92;9.90;;;9.20;99.90;;;;;;5097471;28;20035;-68
2022/05/03 04:32:45;;;;;;;13.80;10.30;;;9.30;99.90;;;;;;5096664;28;20054;-69
2022/05/03 04:35:11;;;;;;;12.38;9.32;;;9.20;99.90;;;;;;5097601;28;20035;-69
2022/05/03 04:37:37;;;;;;;12.73;10.30;;;9.30;99.90;;;;;;5097190;28;20113;-69
2022/05/03 04:40:03;;;;;;;13.13;10.68;;;9.30;99.90;;;;;;5096767;28;20415;-70
2022/05/03 04:42:28;;;;;;;16.60;11.32;;;9.30;99.90;;;;;;5097275;28;20106;-68
2022/05/03 04:44:54;;;;;;;13.88;11.20;;;9.40;99.90;;;;;;5097783;28;20032;-68
2022/05/03 04:47:20;;;;;;;13.15;10.23;;;9.40;99.90;;;;;;5097136;28;20027;-69
2022/05/03 04:49:47;;;;;;;15.02;10.30;;;9.30;99.90;;;;;;5097072;28;20059;-69
2022/05/03 04:52:14;;;;;;;13.63;10.90;;;9.30;99.90;;;;;;5097273;28;20028;-68
2022/05/03 04:54:39;;;;;;;15.88;10.77;;;9.40;99.90;;;;;;5097720;28;20032;-68
2022/05/03 04:57:07;;;;;;;16.73;10.70;;;9.40;99.90;;;;;;5097577;28;20043;-68
2022/05/03 04:59:33;;;;;;;12.57;10.13;;;9.40;99.90;;;;;;5097052;28;20024;-69
2022/05/03 05:01:59;;;;;;;12.57;10.45;;;9.60;99.90;;;;;;5096985;28;20032;-68
2022/05/03 05:04:25;;;;;;;16.67;11.55;;;9.60;99.90;;;;;;5097050;28;20040;-69
2022/05/03 05:06:51;;;;;;;16.73;11.35;;;9.70;99.90;;;;;;5096979;28;20338;-68
2022/05/03 05:09:17;;;;;;;16.08;10.98;;;9.70;99.90;;;;;;5096876;28;20368;-67
2022/05/03 05:11:42;;;;;;;15.38;10.93;;;9.70;99.90;;;;;;5096859;28;20036;-68
2022/05/03 05:14:08;;;;;;;13.55;10.68;;;9.80;99.90;;;;;;5096923;28;20044;-68
2022/05/03 05:16:34;;;;;;;14.85;11.05;;;9.80;99.90;;;;;;5096816;28;20039;-68
2022/05/03 05:19:00;;;;;;;16.48;11.35;;;9.80;99.90;;;;;;5100645;28;20071;-68
2022/05/03 05:21:26;;;;;;;16.77;11.02;;;9.90;99.90;;;;;;5101001;28;20338;-68
2022/05/03 05:23:52;;;;;;;15.25;11.45;;;9.90;99.90;;;;;;5101184;28;20028;-70
2022/05/03 05:26:18;;;;;;;18.02;11.32;;;9.90;99.90;;;;;;5100984;28;20110;-67
2022/05/03 05:28:44;;;;;;;16.92;11.20;;;10.00;99.90;;;;;;5100336;28;20039;-68
2022/05/03 05:31:10;;;;;;;13.95;10.63;;;10.00;99.90;;;;;;5101545;28;20032;-67
2022/05/03 05:33:36;;;;;;;16.27;11.45;;;10.10;99.90;;;;;;5100171;28;20062;-68
2022/05/03 05:36:04;;;;;;;14.48;10.85;;;10.20;99.90;;;;;;5101280;28;20186;-68
2022/05/03 05:38:30;;;;;;;15.25;11.63;;;10.30;99.90;;;;;;5100188;28;20043;-69
2022/05/03 05:40:56;;;;;;;15.25;11.15;;;10.30;99.90;;;;;;5100800;28;20024;-69
2022/05/03 05:43:22;;;;;;;15.85;10.80;;;10.30;99.90;;;;;;5100845;28;20082;-67
2022/05/03 05:45:48;;;;;;;15.45;9.95;;;10.50;99.90;;;;;;5101220;28;20044;-68
2022/05/03 05:48:14;;;;;;;13.75;9.85;;;10.60;99.90;;;;;;5100583;28;20090;-67
2022/05/03 05:50:40;;;;;;;12.13;9.43;;;10.60;99.90;;;;;;5100878;28;20085;-68
2022/05/03 05:55:53;;;;;;;14.45;10.30;;;10.90;99.90;;;;;;5100384;28;20376;-69
2022/05/03 05:58:19;;;;;;;15.00;10.40;;;10.90;99.90;;;;;;5099554;28;20036;-69
2022/05/03 06:00:45;;;;;;;14.10;10.05;;;11.00;99.90;;;;;;5100287;28;20063;-68
2022/05/03 06:03:10;;;;;;;13.57;10.23;;;11.10;99.90;;;;;;5100594;28;20044;-69
2022/05/03 06:05:39;;;;;;;13.70;10.35;;;11.10;99.90;;;;;;5100234;28;20028;-66
2022/05/03 06:08:06;;;;;;;14.38;10.48;;;11.10;99.90;;;;;;5099614;28;20039;-67
2022/05/03 06:10:32;;;;;;;12.70;10.05;;;11.20;99.90;;;;;;5100149;28;20071;-66
2022/05/03 06:12:59;;;;;;;12.43;10.25;;;11.30;99.90;;;;;;5100093;28;20050;-67
2022/05/03 06:15:25;;;;;;;13.18;9.45;;;11.40;99.90;;;;;;5099974;28;20062;-68
2022/05/03 06:17:52;;;;;;;14.32;8.75;;;11.50;99.90;;;;;;5099086;28;20061;-67
2022/05/03 06:20:17;;;;;;;14.05;9.35;;;11.60;99.90;;;;;;5100436;28;20295;-65
2022/05/03 06:22:43;;;;;;;13.05;9.90;;;11.60;99.90;;;;;;5100022;28;20092;-65
2022/05/03 06:25:09;;;;;;;13.88;10.35;;;11.90;99.90;;;;;;5099163;28;20020;-66
2022/05/03 06:27:39;;;;;;;13.38;9.77;;;11.90;99.90;;;;;;5099839;28;20032;-67
2022/05/03 06:30:06;;;;;;;13.02;9.55;;;12.00;99.90;;;;;;5099168;28;20111;-65
2022/05/03 06:32:33;;;;;;;12.70;9.90;;;12.00;99.90;;;;;;5098938;28;20328;-67
2022/05/03 06:34:58;;;;;;;13.77;9.77;;;12.10;99.90;;;;;;5099689;28;20043;-67
2022/05/03 06:37:24;;;;;;;13.43;10.20;;;12.10;99.90;;;;;;5099611;28;20288;-67
2022/05/03 06:39:50;;;;;;;11.77;9.23;;;12.20;99.90;;;;;;5099668;28;20111;-65
2022/05/03 06:42:18;;;;;;;12.52;9.50;;;12.20;99.90;;;;;;5099659;28;20046;-65
2022/05/03 06:44:44;;;;;;;11.88;9.43;;;12.30;99.90;;;;;;5100130;28;20036;-66
2022/05/03 06:47:10;;;;;;;11.93;9.13;;;12.30;99.90;;;;;;5099612;28;20384;-70
2022/05/03 06:49:36;;;;;;;11.65;8.48;;;12.40;99.90;;;;;;5098713;28;20044;-67
2022/05/03 06:52:03;;;;;;;11.55;8.40;;;12.50;99.90;;;;;;5099418;28;20059;-66
2022/05/03 06:54:28;;;;;;;11.95;8.23;;;12.50;99.90;;;;;;5099292;28;20340;-67
2022/05/03 06:56:55;;;;;;;13.48;8.55;;;12.60;99.90;;;;;;5098543;28;20097;-66
2022/05/03 06:59:20;;;;;;;11.20;9.32;;;12.70;99.90;;;;;;5098491;28;20036;-66
2022/05/03 07:01:46;;;;;;;12.45;9.23;;;12.70;99.90;;;;;;5099489;28;20348;-66
2022/05/03 07:04:12;;;;;;;13.18;8.18;;;12.80;99.90;;;;;;5099064;28;20036;-66
2022/05/03 07:06:38;;;;;;;12.18;8.77;;;12.80;99.90;;;;;;5099134;28;20276;-67
2022/05/03 07:09:03;;;;;;;12.07;7.80;;;12.80;99.90;;;;;;5098523;28;20047;-67
2022/05/03 07:11:29;;;;;;;8.73;7.32;;;12.90;99.90;;;;;;5098986;28;20322;-66
2022/05/03 07:13:55;;;;;;;10.77;7.63;;;12.90;99.90;;;;;;5099036;28;20032;-66
2022/05/03 07:16:21;;;;;;;11.80;8.77;;;13.10;99.90;;;;;;5098883;28;20032;-66
2022/05/03 07:24:15;;;;;;;10.48;7.88;;;13.40;99.90;;;;;;5098826;28;20074;-67
2022/05/03 07:26:41;;;;;;;10.20;7.05;;;13.60;99.90;;;;;;5098066;28;20066;-66
2022/05/03 07:29:07;;;;;;;11.10;8.48;;;13.70;99.90;;;;;;5098651;28;20436;-66
2022/05/03 07:31:33;;;;;;;11.32;8.05;;;13.70;99.90;;;;;;5097982;28;20021;-66
2022/05/03 07:33:59;;;;;;;10.35;7.95;;;13.80;99.90;;;;;;5098041;28;20068;-66
2022/05/03 07:36:28;;;;;;;10.57;7.18;;;13.80;99.90;;;;;;5098154;28;20028;-66
2022/05/03 07:38:54;;;;;;;11.32;7.78;;;13.80;99.90;;;;;;5098486;28;20024;-67
2022/05/03 07:41:19;;;;;;;11.57;7.53;;;13.70;99.90;;;;;;5098213;28;20035;-66
2022/05/03 07:43:45;;;;;;;9.57;7.43;;;13.90;99.90;;;;;;5098367;28;20097;-66
2022/05/03 07:46:11;;;;;;;12.20;7.90;;;14.00;99.90;;;;;;5097523;28;20391;-67
2022/05/03 07:48:37;;;;;;;9.80;7.57;;;14.10;99.90;;;;;;5097444;28;20048;-67
2022/05/03 07:51:03;;;;;;;10.40;8.27;;;14.10;99.90;;;;;;5098836;28;20358;-66
2022/05/03 07:53:28;;;;;;;11.45;8.23;;;14.30;99.90;;;;;;5098184;28;20040;-67
2022/05/03 07:55:54;;;;;;;11.57;8.13;;;14.50;99.90;;;;;;5098037;28;20421;-67
2022/05/03 07:58:22;;;;;;;9.63;7.85;;;14.50;99.90;;;;;;5097317;28;20130;-66
2022/05/03 08:00:48;;;;;;;11.13;7.88;;;14.60;99.90;;;;;;5098257;28;20476;-67
2022/05/03 08:03:15;;;;;;;9.98;7.75;;;14.70;99.90;;;;;;5097186;28;20028;-67
2022/05/03 08:05:41;;;;;;;11.82;7.95;;;14.60;99.90;;;;;;5097925;28;20039;-66
2022/05/03 08:08:07;;;;;;;9.80;7.80;;;14.70;99.90;;;;;;5097898;28;20063;-67
2022/05/03 08:10:33;;;;;;;11.32;8.25;;;14.80;99.90;;;;;;5098001;28;20435;-65
2022/05/03 08:12:58;;;;;;;14.00;8.60;;;15.00;99.90;;;;;;5097801;28;20081;-65
2022/05/03 08:15:24;;;;;;;11.23;8.40;;;15.00;99.90;;;;;;5097688;28;20028;-65
2022/05/03 08:17:51;;;;;;;9.02;7.68;;;15.00;99.90;;;;;;5097581;28;20077;-65
2022/05/03 08:20:17;;;;;;;10.50;7.72;;;15.00;99.90;;;;;;5097691;28;20028;-66
2022/05/03 08:22:44;;;;;;;9.77;7.45;;;15.10;99.90;;;;;;5097529;28;20084;-66
2022/05/03 08:25:10;;;;;;;9.38;7.53;;;15.10;99.90;;;;;;5097482;28;20119;-66
2022/05/03 08:27:38;;;;;;;10.55;6.63;;;15.10;99.90;;;;;;5096822;28;20028;-66
2022/05/03 08:30:08;;;;;;;8.18;7.05;;;15.30;99.90;;;;;;5097457;28;20024;-66
2022/05/03 08:32:34;;;;;;;11.02;7.57;;;15.40;99.90;;;;;;5097545;28;20039;-65
2022/05/03 08:35:00;;;;;;;11.45;7.82;;;15.60;99.90;;;;;;5097434;28;20043;-65
2022/05/03 08:42:56;;;;;;;9.48;7.70;;;15.70;99.90;;;;;;5096464;28;20036;-65
2022/05/03 08:45:24;;;;;;;11.05;7.63;;;15.80;99.90;;;;;;5079734;28;20032;-66
2022/05/03 08:47:50;;;;;;;8.38;7.47;;;15.90;99.90;;;;;;5097008;28;20120;-65
2022/05/03 08:50:22;;;;;;;13.25;8.45;;;15.80;99.90;;;;;;5097219;28;20063;-65
2022/05/03 08:53:01;;;;;;;10.90;7.90;;;15.90;99.90;;;;;;5096441;28;20036;-66
2022/05/03 08:55:27;;;;;;;10.35;6.95;;;15.90;99.90;;;;;;5097226;28;20055;-66
2022/05/03 08:57:53;;;;;;;9.40;6.32;;;16.10;99.90;;;;;;5096043;28;20084;-66
2022/05/03 09:00:20;;;;;;;9.88;6.75;;;16.20;99.90;;;;;;5096795;28;20063;-66
2022/05/03 09:02:52;;;;;;;10.07;7.47;;;16.10;99.90;;;;;;5096261;28;20040;-66
2022/05/03 09:05:18;;;;;;;8.47;7.10;;;16.10;99.90;;;;;;5097472;28;20040;-68
2022/05/03 09:07:49;;;;;;;9.00;6.60;;;15.80;99.90;;;;;;5096216;28;20723;-68
2022/05/03 09:10:20;;;;;;;7.90;6.55;;;15.90;99.90;;;;;;5096958;28;20025;-67
2022/05/03 09:12:49;;;;;;;8.45;6.55;;;16.00;99.90;;;;;;5096944;28;20099;-69
2022/05/03 09:15:27;;;;;;;9.88;7.90;;;16.30;99.90;;;;;;5097079;28;20036;-67
2022/05/03 09:17:52;;;;;;;7.93;7.13;;;16.60;99.90;;;;;;5096942;28;20296;-69
2022/05/03 09:25:55;;;;;;;9.35;7.68;;;16.60;99.90;;;;;;5096915;28;20392;-69
2022/05/03 09:28:22;;;;;;;11.30;7.57;;;16.80;99.90;;;;;;5097106;28;20399;-68
2022/05/03 09:30:50;;;;;;;7.72;6.70;;;17.00;99.90;;;;;;5096797;28;20047;-67
2022/05/03 09:33:21;;;;;;;8.35;6.60;;;17.20;99.90;;;;;;5096852;28;20039;-68
2022/05/03 09:35:49;;;;;;;6.90;6.20;;;17.20;99.90;;;;;;5097101;28;20035;-66
2022/05/03 09:38:15;;;;;;;6.80;5.35;;;17.40;99.90;;;;;;5096581;28;20044;-68
2022/05/03 09:40:44;;;;;;;7.18;5.93;;;17.50;99.90;;;;;;5096743;28;20031;-67
2022/05/03 09:43:10;;;;;;;7.20;6.30;;;17.50;99.90;;;;;;5097009;28;20031;-67
2022/05/03 09:45:37;;;;;;;12.45;6.32;;;17.70;99.90;;;;;;5096498;28;20024;-67
2022/05/03 09:48:03;;;;;;;7.50;6.55;;;17.80;99.90;;;;;;5095651;28;20040;-67
2022/05/03 09:50:29;;;;;;;8.85;6.68;;;17.90;99.90;;;;;;5096500;28;20043;-67
2022/05/03 09:52:56;;;;;;;9.63;6.75;;;18.00;99.90;;;;;;5096449;28;20384;-68
2022/05/03 09:55:30;;;;;;;8.90;6.20;;;17.90;99.90;;;;;;5096023;28;20074;-68
2022/05/03 09:57:59;;;;;;;6.90;4.97;;;17.90;99.90;;;;;;5095675;28;20108;-68
2022/05/03 10:00:25;;;;;;;6.55;5.25;;;18.10;99.90;;;;;;5097013;28;20028;-68
2022/05/03 10:02:52;;;;;;;7.85;5.43;;;18.20;99.90;;;;;;5096522;28;20028;-68
2022/05/03 10:05:21;;;;;;;10.07;6.97;;;18.30;99.90;;;;;;5099536;28;20085;-68
2022/05/03 10:07:49;;;;;;;7.75;6.13;;;18.20;99.90;;;;;;5099234;28;20052;-68
2022/05/03 10:10:16;;;;;;;8.93;6.18;;;18.20;99.90;;;;;;5100109;28;20365;-68
2022/05/03 10:12:43;;;;;;;8.98;6.70;;;18.70;99.90;;;;;;5099577;28;20177;-69
2022/05/03 10:15:10;;;;;;;7.43;6.03;;;18.70;99.90;;;;;;5099950;28;20055;-68
2022/05/03 10:20:40;;;;;;;5.32;4.82;;;19.20;99.90;;;;;;5100025;28;20380;-69
2022/05/03 10:23:25;;;;;;;7.10;5.88;;;19.60;99.90;;;;;;5100488;28;20032;-69
2022/05/03 10:25:56;;;;;;;7.00;5.72;;;20.30;99.90;;;;;;5099577;28;20025;-69
2022/05/03 10:28:23;;;;;;;5.63;4.93;;;20.80;99.90;;;;;;5099822;28;20032;-68
2022/05/03 10:31:08;;;;;;;7.75;6.90;;;20.80;99.90;;;;;;5099786;28;20444;-69
2022/05/03 10:33:35;;;;;;;6.88;5.70;;;20.90;99.90;;;;;;5099518;28;20273;-68
2022/05/03 10:36:02;;;;;;;6.38;5.57;;;21.20;99.90;;;;;;5099567;28;20023;-69
2022/05/03 10:38:46;;;;;;;6.22;5.40;;;21.80;99.90;;;;;;5099923;28;20043;-69
2022/05/03 10:41:22;;;;;;;6.13;5.10;;;22.30;99.90;;;;;;5083699;28;20122;-69
2022/05/03 10:43:47;;;;;;;6.22;5.63;;;22.20;99.90;;;;;;5099944;28;20093;-67
2022/05/03 10:46:20;;;;;;;6.03;5.45;;;22.60;99.90;;;;;;5100084;28;20032;-69
2022/05/03 10:49:20;;;;;;;6.05;5.30;;;23.00;98.50;;;;;;5099390;28;20048;-69
2022/05/03 10:51:49;;;;;;;6.72;5.93;;;22.80;97.40;;;;;;5098776;28;20036;-68
2022/05/03 10:54:15;;;;;;;6.80;5.22;;;22.50;97.30;;;;;;5099326;28;20388;-68
2022/05/03 10:57:01;;;;;;;7.07;4.72;;;22.10;97.60;;;;;;5098622;28;20054;-68
2022/05/03 10:59:46;;;;;;;4.90;4.50;;;21.50;97.50;;;;;;5099254;28;20126;-69
2022/05/03 11:02:12;;;;;;;4.68;4.28;;;21.40;97.70;;;;;;5099234;28;20036;-68
2022/05/03 11:05:16;;;;;;;5.72;5.13;;;21.20;97.60;;;;;;5099194;28;20023;-68
2022/05/03 11:08:14;;;;;;;5.05;4.55;;;21.10;97.40;;;;;;5099158;28;20035;-68
2022/05/03 11:10:44;;;;;;;4.10;3.70;;;21.70;96.90;;;;;;5099104;28;20085;-69
2022/05/03 11:13:36;;;;;;;9.75;5.82;;;23.00;94.80;;;;;;5099029;28;20058;-68
2022/05/03 11:16:19;;;;;;;6.05;5.15;;;23.10;94.80;;;;;;5097567;28;20422;-68
2022/05/03 11:18:45;;;;;;;7.53;6.05;;;22.90;95.10;;;;;;5098801;28;20028;-67
2022/05/03 11:21:15;;;;;;;8.45;7.65;;;22.20;95.10;;;;;;5099353;28;20024;-66
2022/05/03 11:23:49;;;;;;;7.60;6.43;;;21.90;95.90;;;;;;5098768;28;20032;-66
2022/05/03 11:26:17;;;;;;;5.70;5.05;;;21.80;95.90;;;;;;5098747;28;20036;-67
2022/05/03 11:28:46;;;;;;;5.90;5.28;;;21.40;96.40;;;;;;5099034;28;20077;-66
2022/05/03 11:31:15;;;;;;;5.50;4.95;;;21.40;95.60;;;;;;5098899;28;20400;-68
2022/05/03 11:33:59;;;;;;;8.48;5.50;;;21.30;95.90;;;;;;5098870;28;20028;-66
2022/05/03 11:36:27;;;;;;;7.88;4.65;;;21.10;95.90;;;;;;5098995;28;20089;-69
2022/05/03 11:38:54;;;;;;;5.32;4.82;;;21.30;96.40;;;;;;5098212;28;20032;-67
2022/05/03 11:41:25;;;;;;;7.10;5.10;;;21.40;95.60;;;;;;5098304;28;20032;-67
2022/05/03 11:43:51;;;;;;;5.18;4.60;;;21.50;95.50;;;;;;5098422;28;20032;-67
2022/05/03 11:46:18;;;;;;;6.15;5.47;;;21.50;94.80;;;;;;5097692;28;20088;-67
2022/05/03 11:48:49;;;;;;;6.80;6.07;;;20.50;95.90;;;;;;5097898;28;20055;-67
2022/05/03 11:56:48;;;;;;;6.10;5.50;;;21.60;96.40;;;;;;5098310;28;20044;-67
2022/05/03 11:59:14;;;;;;;9.52;6.55;;;22.30;95.30;;;;;;5098098;28;20028;-67
2022/05/03 12:01:40;;;;;;;7.90;6.50;;;22.60;94.90;;;;;;5098161;28;20107;-68
2022/05/03 12:04:08;;;;;;;9.65;7.82;;;22.20;94.40;;;;;;5097730;28;20115;-67
2022/05/03 12:06:43;;;;;;;7.82;7.07;;;22.20;95.40;;;;;;5097998;28;20299;-67
2022/05/03 12:09:19;;;;;;;7.53;6.82;;;21.90;95.20;;;;;;5097251;28;20040;-66
2022/05/03 12:14:38;;;;;;;7.68;6.65;;;22.00;95.40;;;;;;5097946;28;20097;-67
2022/05/03 12:17:04;;;;;;;7.10;6.40;;;22.00;95.00;;;;;;5097731;28;20031;-67
2022/05/03 12:19:37;;;;;;;7.03;5.75;;;21.80;95.60;;;;;;5098014;28;20029;-67
2022/05/03 12:22:12;;;;;;;6.60;5.93;;;21.80;96.00;;;;;;5097551;28;20119;-68
2022/05/03 12:24:45;;;;;;;5.90;5.30;;;21.60;95.20;;;;;;5096789;28;20028;-66
2022/05/03 12:27:12;;;;;;;6.10;5.20;;;21.40;95.90;;;;;;5096964;28;20460;-67
2022/05/03 12:29:48;;;;;;;6.05;5.10;;;21.70;95.20;;;;;;5097557;28;20044;-68
2022/05/03 12:32:18;;;;;;;5.07;4.60;;;21.40;94.90;;;;;;5097446;28;20064;-68
2022/05/03 12:35:00;;;;;;;7.18;6.32;;;21.70;95.80;;;;;;5097496;28;20395;-68
2022/05/03 12:37:27;;;;;;;9.40;6.87;;;21.90;94.50;;;;;;5096946;28;20345;-68
2022/05/03 12:40:00;;;;;;;7.63;6.85;;;22.00;94.60;;;;;;5097438;28;20085;-67
2022/05/03 12:42:25;;;;;;;11.02;8.90;;;22.20;94.90;;;;;;5096678;28;20062;-67
2022/05/03 12:44:59;;;;;;;9.55;8.60;;;22.60;95.40;;;;;;5097373;28;20044;-67
2022/05/03 12:47:28;;;;;;;11.23;10.13;;;22.40;96.50;;;;;;5097405;28;20031;-68
2022/05/03 12:49:54;;;;;;;12.25;10.88;;;22.40;97.60;;;;;;5097444;28;20047;-67
2022/05/03 12:52:21;;;;;;;16.63;12.18;;;22.40;97.30;;;;;;5097116;28;20032;-67
2022/05/03 12:54:48;;;;;;;12.52;11.23;;;22.80;97.30;;;;;;5097214;28;20024;-66
2022/05/03 12:59:59;;;;;;;11.75;10.48;;;24.10;95.60;;;;;;5097161;28;20358;-67
2022/05/03 13:02:25;;;;;;;9.20;8.30;;;25.60;93.50;;;;;;5096905;28;20016;-68
2022/05/03 13:04:52;;;;;;;8.13;7.40;;;26.00;92.60;;;;;;5096968;28;20027;-68
2022/05/03 13:07:18;;;;;;;10.63;9.63;;;27.00;91.50;;;;;;5097025;28;20071;-69
2022/05/03 13:09:44;;;;;;;12.43;10.48;;;27.30;91.00;;;;;;5097095;28;20047;-67
2022/05/03 13:12:10;;;;;;;11.43;10.32;;;27.20;90.00;;;;;;5096932;28;20028;-67
2022/05/03 13:14:37;;;;;;;11.90;10.75;;;27.70;89.00;;;;;;5096916;28;20333;-67
2022/05/03 13:17:04;;;;;;;13.23;11.68;;;28.40;87.40;;;;;;5095961;28;20088;-68
2022/05/03 13:19:30;;;;;;;11.80;10.57;;;28.20;86.90;;;;;;5096794;28;20293;-68
2022/05/03 13:22:00;;;;;;;9.52;7.93;;;27.90;85.10;;;;;;5096811;28;20029;-67
2022/05/03 13:24:26;;;;;;;13.30;11.20;;;27.50;85.70;;;;;;5096721;28;20109;-67
2022/05/03 13:26:52;;;;;;;12.85;11.65;;;27.10;85.80;;;;;;5096738;28;20380;-67
2022/05/03 13:29:19;;;;;;;11.25;10.15;;;26.70;86.90;;;;;;5096692;28;20052;-67
2022/05/03 13:31:45;;;;;;;11.80;10.75;;;26.10;88.00;;;;;;5096745;28;20043;-68
2022/05/03 13:34:12;;;;;;;11.38;10.32;;;26.10;87.80;;;;;;5096745;28;20024;-67
2022/05/03 13:42:09;;;;;;;11.43;10.27;;;26.30;88.10;;;;;;5100729;28;20303;-68
2022/05/03 13:44:36;;;;;;;13.55;10.45;;;26.90;86.40;;;;;;5100666;28;20032;-68